sensor_id;sensor_type;location;lat;lon;timestamp;pressure;altitude;pressure_sealevel;temperature
65738;BMP280;52478;51.844;6.582;2022-08-25T00:01:00;101442.41;;;28.04
65738;BMP280;52478;51.844;6.582;2022-08-25T00:03:26;101436.41;;;28.00
65738;BMP280;52478;51.844;6.582;2022-08-25T00:05:53;101435.25;;;27.95
65738;BMP280;52478;51.844;6.582;2022-08-25T00:08:19;101442.72;;;27.85
65738;BMP280;52478;51.844;6.582;2022-08-25T00:10:46;101437.13;;;27.93
65738;BMP280;52478;51.844;6.582;2022-08-25T00:13:12;101443.16;;;27.97
65738;BMP280;52478;51.844;6.582;2022-08-25T00:15:40;101446.19;;;27.99
65738;BMP280;52478;51.844;6.582;2022-08-25T00:18:07;101444.28;;;27.94
65738;BMP280;52478;51.844;6.582;2022-08-25T00:20:33;101442.06;;;28.00
65738;BMP280;52478;51.844;6.582;2022-08-25T00:23:00;101442.75;;;27.93
65738;BMP280;52478;51.844;6.582;2022-08-25T00:25:26;101446.88;;;27.92
65738;BMP280;52478;51.844;6.582;2022-08-25T00:27:53;101446.50;;;27.95
65738;BMP280;52478;51.844;6.582;2022-08-25T00:30:19;101438.63;;;27.94
65738;BMP280;52478;51.844;6.582;2022-08-25T00:32:47;101444.09;;;27.99
65738;BMP280;52478;51.844;6.582;2022-08-25T00:35:14;101437.00;;;28.06
65738;BMP280;52478;51.844;6.582;2022-08-25T00:37:41;101438.69;;;28.09
65738;BMP280;52478;51.844;6.582;2022-08-25T00:40:08;101442.41;;;28.04
65738;BMP280;52478;51.844;6.582;2022-08-25T00:42:35;101446.56;;;28.10
65738;BMP280;52478;51.844;6.582;2022-08-25T00:45:04;101454.06;;;28.08
65738;BMP280;52478;51.844;6.582;2022-08-25T00:47:30;101451.44;;;28.10
65738;BMP280;52478;51.844;6.582;2022-08-25T00:50:00;101454.44;;;28.12
65738;BMP280;52478;51.844;6.582;2022-08-25T00:52:31;101454.06;;;28.08
65738;BMP280;52478;51.844;6.582;2022-08-25T00:55:01;101455.19;;;28.05
65738;BMP280;52478;51.844;6.582;2022-08-25T00:57:30;101459.72;;;28.08
65738;BMP280;52478;51.844;6.582;2022-08-25T00:59:58;101448.63;;;28.02
65738;BMP280;52478;51.844;6.582;2022-08-25T01:02:25;101452.53;;;28.07
65738;BMP280;52478;51.844;6.582;2022-08-25T01:04:51;101454.44;;;28.12
65738;BMP280;52478;51.844;6.582;2022-08-25T01:07:20;101442.41;;;28.04
65738;BMP280;52478;51.844;6.582;2022-08-25T01:09:50;101446.91;;;28.07
65738;BMP280;52478;51.844;6.582;2022-08-25T01:12:18;101445.22;;;27.96
65738;BMP280;52478;51.844;6.582;2022-08-25T01:14:45;101454.78;;;28.01
65738;BMP280;52478;51.844;6.582;2022-08-25T01:17:12;101454.03;;;28.00
65738;BMP280;52478;51.844;6.582;2022-08-25T01:19:40;101450.28;;;27.98
65738;BMP280;52478;51.844;6.582;2022-08-25T01:22:08;101451.56;;;27.89
65738;BMP280;52478;51.844;6.582;2022-08-25T01:24:40;101450.28;;;27.98
65738;BMP280;52478;51.844;6.582;2022-08-25T01:27:08;101452.16;;;28.03
65738;BMP280;52478;51.844;6.582;2022-08-25T01:29:35;101454.63;;;27.99
65738;BMP280;52478;51.844;6.582;2022-08-25T01:32:05;101448.75;;;27.89
65738;BMP280;52478;51.844;6.582;2022-08-25T01:34:33;101452.50;;;27.92
65738;BMP280;52478;51.844;6.582;2022-08-25T01:37:00;101446.50;;;27.88
65738;BMP280;52478;51.844;6.582;2022-08-25T01:39:30;101449.06;;;27.71
65738;BMP280;52478;51.844;6.582;2022-08-25T01:42:16;101452.28;;;27.82
65738;BMP280;52478;51.844;6.582;2022-08-25T01:44:45;101444.59;;;27.75
65738;BMP280;52478;51.844;6.582;2022-08-25T01:47:13;101440.63;;;27.71
65738;BMP280;52478;51.844;6.582;2022-08-25T01:49:40;101445.16;;;27.74
65738;BMP280;52478;51.844;6.582;2022-08-25T01:52:11;101448.91;;;27.69
65738;BMP280;52478;51.844;6.582;2022-08-25T01:54:41;101454.13;;;27.65
65738;BMP280;52478;51.844;6.582;2022-08-25T01:57:08;101453.00;;;27.68
65738;BMP280;52478;51.844;6.582;2022-08-25T01:59:34;101449.06;;;27.71
65738;BMP280;52478;51.844;6.582;2022-08-25T02:02:00;101457.16;;;27.74
65738;BMP280;52478;51.844;6.582;2022-08-25T02:04:28;101461.44;;;27.68
65738;BMP280;52478;51.844;6.582;2022-08-25T02:06:56;101459.75;;;27.65
65738;BMP280;52478;51.844;6.582;2022-08-25T02:09:22;101450.22;;;27.75
65738;BMP280;52478;51.844;6.582;2022-08-25T02:11:50;101456.03;;;27.77
65738;BMP280;52478;51.844;6.582;2022-08-25T02:14:17;101453.22;;;27.70
65738;BMP280;52478;51.844;6.582;2022-08-25T02:16:45;101454.00;;;27.78
65738;BMP280;52478;51.844;6.582;2022-08-25T02:19:14;101456.94;;;27.65
65738;BMP280;52478;51.844;6.582;2022-08-25T02:21:40;101457.34;;;27.69
65738;BMP280;52478;51.844;6.582;2022-08-25T02:24:08;101453.41;;;27.72
65738;BMP280;52478;51.844;6.582;2022-08-25T02:26:34;101455.88;;;27.75
65738;BMP280;52478;51.844;6.582;2022-08-25T02:29:04;101454.00;;;27.78
65738;BMP280;52478;51.844;6.582;2022-08-25T02:31:32;101457.34;;;27.76
65738;BMP280;52478;51.844;6.582;2022-08-25T02:33:59;101462.25;;;27.76
65738;BMP280;52478;51.844;6.582;2022-08-25T02:36:26;101462.81;;;27.74
65738;BMP280;52478;51.844;6.582;2022-08-25T02:38:53;101458.63;;;27.68
65738;BMP280;52478;51.844;6.582;2022-08-25T02:41:21;101464.47;;;27.70
65738;BMP280;52478;51.844;6.582;2022-08-25T02:43:48;101466.88;;;27.66
65738;BMP280;52478;51.844;6.582;2022-08-25T02:46:18;101470.41;;;27.59
65738;BMP280;52478;51.844;6.582;2022-08-25T02:48:46;101477.31;;;27.51
65738;BMP280;52478;51.844;6.582;2022-08-25T02:51:12;101455.38;;;27.49
65738;BMP280;52478;51.844;6.582;2022-08-25T02:53:40;101462.44;;;27.35
65738;BMP280;52478;51.844;6.582;2022-08-25T02:56:11;101467.28;;;27.27
65738;BMP280;52478;51.844;6.582;2022-08-25T02:58:38;101458.59;;;27.25
65738;BMP280;52478;51.844;6.582;2022-08-25T03:01:05;101456.06;;;27.35
65738;BMP280;52478;51.844;6.582;2022-08-25T03:03:35;101446.00;;;27.47
65738;BMP280;52478;51.844;6.582;2022-08-25T03:06:01;101451.25;;;27.50
65738;BMP280;52478;51.844;6.582;2022-08-25T03:08:29;101456.09;;;27.42
65738;BMP280;52478;51.844;6.582;2022-08-25T03:10:55;101453.06;;;27.40
65738;BMP280;52478;51.844;6.582;2022-08-25T03:13:22;101448.19;;;27.33
65738;BMP280;52478;51.844;6.582;2022-08-25T03:15:48;101437.13;;;27.35
65738;BMP280;52478;51.844;6.582;2022-08-25T03:18:15;101427.94;;;27.35
65738;BMP280;52478;51.844;6.582;2022-08-25T03:20:43;101436.53;;;27.29
65738;BMP280;52478;51.844;6.582;2022-08-25T03:23:10;101433.19;;;27.31
65738;BMP280;52478;51.844;6.582;2022-08-25T03:25:38;101436.41;;;27.42
65738;BMP280;52478;51.844;6.582;2022-08-25T03:28:22;101428.34;;;27.39
65738;BMP280;52478;51.844;6.582;2022-08-25T03:30:48;101432.13;;;27.49
65738;BMP280;52478;51.844;6.582;2022-08-25T03:33:15;101419.00;;;27.51
65738;BMP280;52478;51.844;6.582;2022-08-25T03:35:43;101421.25;;;27.45
65738;BMP280;52478;51.844;6.582;2022-08-25T03:38:09;101421.06;;;27.51
65738;BMP280;52478;51.844;6.582;2022-08-25T03:40:36;101418.25;;;27.51
65738;BMP280;52478;51.844;6.582;2022-08-25T03:43:03;101415.38;;;27.43
65738;BMP280;52478;51.844;6.582;2022-08-25T03:45:30;101420.50;;;27.52
65738;BMP280;52478;51.844;6.582;2022-08-25T03:47:56;101416.00;;;27.49
65738;BMP280;52478;51.844;6.582;2022-08-25T03:50:23;101417.09;;;27.46
65738;BMP280;52478;51.844;6.582;2022-08-25T03:52:53;101414.28;;;27.46
65738;BMP280;52478;51.844;6.582;2022-08-25T03:55:21;101412.06;;;27.52
65738;BMP280;52478;51.844;6.582;2022-08-25T03:57:48;101413.84;;;27.27
65738;BMP280;52478;51.844;6.582;2022-08-25T04:00:15;101416.16;;;27.36
65738;BMP280;52478;51.844;6.582;2022-08-25T04:02:41;101412.94;;;27.32
65738;BMP280;52478;51.844;6.582;2022-08-25T04:05:08;101400.22;;;27.39
65738;BMP280;52478;51.844;6.582;2022-08-25T04:07:35;101403.38;;;27.35
65738;BMP280;52478;51.844;6.582;2022-08-25T04:10:03;101394.22;;;27.42
65738;BMP280;52478;51.844;6.582;2022-08-25T04:12:30;101400.75;;;27.37
65738;BMP280;52478;51.844;6.582;2022-08-25T04:14:56;101397.75;;;27.35
65738;BMP280;52478;51.844;6.582;2022-08-25T04:17:23;101393.25;;;27.32
65738;BMP280;52478;51.844;6.582;2022-08-25T04:19:49;101388.84;;;27.16
65738;BMP280;52478;51.844;6.582;2022-08-25T04:22:16;101388.84;;;27.16
65738;BMP280;52478;51.844;6.582;2022-08-25T04:24:44;101386.09;;;27.24
65738;BMP280;52478;51.844;6.582;2022-08-25T04:27:11;101390.38;;;27.17
65738;BMP280;52478;51.844;6.582;2022-08-25T04:29:38;101384.75;;;27.17
65738;BMP280;52478;51.844;6.582;2022-08-25T04:32:04;101370.28;;;27.13
65738;BMP280;52478;51.844;6.582;2022-08-25T04:34:31;101376.06;;;27.08
65738;BMP280;52478;51.844;6.582;2022-08-25T04:36:59;101376.41;;;26.97
65738;BMP280;52478;51.844;6.582;2022-08-25T04:39:27;101373.34;;;26.88
65738;BMP280;52478;51.844;6.582;2022-08-25T04:41:53;101365.50;;;26.93
65738;BMP280;52478;51.844;6.582;2022-08-25T04:44:21;101384.25;;;26.98
65738;BMP280;52478;51.844;6.582;2022-08-25T04:46:48;101380.94;;;27.07
65738;BMP280;52478;51.844;6.582;2022-08-25T04:49:14;101385.03;;;27.06
65738;BMP280;52478;51.844;6.582;2022-08-25T04:51:41;101392.09;;;26.92
65738;BMP280;52478;51.844;6.582;2022-08-25T04:54:10;101394.91;;;26.92
65738;BMP280;52478;51.844;6.582;2022-08-25T04:56:39;101394.41;;;27.01
65738;BMP280;52478;51.844;6.582;2022-08-25T04:59:08;101387.25;;;27.00
65738;BMP280;52478;51.844;6.582;2022-08-25T05:01:36;101389.94;;;27.06
65738;BMP280;52478;51.844;6.582;2022-08-25T05:04:05;101384.63;;;26.95
65738;BMP280;52478;51.844;6.582;2022-08-25T05:06:32;101388.38;;;26.97
65738;BMP280;52478;51.844;6.582;2022-08-25T05:08:59;101382.56;;;26.95
65738;BMP280;52478;51.844;6.582;2022-08-25T05:11:26;101390.38;;;26.89
65738;BMP280;52478;51.844;6.582;2022-08-25T05:13:53;101390.78;;;26.93
65738;BMP280;52478;51.844;6.582;2022-08-25T05:16:22;101394.72;;;26.91
65738;BMP280;52478;51.844;6.582;2022-08-25T05:18:51;101396.94;;;26.85
65738;BMP280;52478;51.844;6.582;2022-08-25T05:21:20;101403.34;;;26.92
65738;BMP280;52478;51.844;6.582;2022-08-25T05:23:47;101393.59;;;26.93
65738;BMP280;52478;51.844;6.582;2022-08-25T05:26:16;101386.47;;;26.92
65738;BMP280;52478;51.844;6.582;2022-08-25T05:28:43;101382.75;;;26.97
65738;BMP280;52478;51.844;6.582;2022-08-25T05:31:11;101389.69;;;26.96
65738;BMP280;52478;51.844;6.582;2022-08-25T05:33:39;101388.94;;;26.96
65738;BMP280;52478;51.844;6.582;2022-08-25T05:36:09;101370.81;;;27.04
65738;BMP280;52478;51.844;6.582;2022-08-25T05:38:37;101380.94;;;27.07
65738;BMP280;52478;51.844;6.582;2022-08-25T05:41:06;101377.59;;;27.09
65738;BMP280;52478;51.844;6.582;2022-08-25T05:43:35;101378.31;;;27.09
65738;BMP280;52478;51.844;6.582;2022-08-25T05:46:03;101378.72;;;27.13
65738;BMP280;52478;51.844;6.582;2022-08-25T05:48:29;101383.22;;;27.16
65738;BMP280;52478;51.844;6.582;2022-08-25T05:50:58;101376.69;;;27.21
65738;BMP280;52478;51.844;6.582;2022-08-25T05:53:27;101384.03;;;27.24
65738;BMP280;52478;51.844;6.582;2022-08-25T05:55:55;101385.16;;;27.29
65738;BMP280;52478;51.844;6.582;2022-08-25T05:58:27;101390.19;;;27.23
65738;BMP280;52478;51.844;6.582;2022-08-25T06:00:55;101390.59;;;27.27
65738;BMP280;52478;51.844;6.582;2022-08-25T06:03:22;101389.44;;;27.22
65738;BMP280;52478;51.844;6.582;2022-08-25T06:05:47;101389.84;;;27.26
65738;BMP280;52478;51.844;6.582;2022-08-25T06:08:14;101387.41;;;27.30
65738;BMP280;52478;51.844;6.582;2022-08-25T06:10:42;101373.03;;;27.34
65738;BMP280;52478;51.844;6.582;2022-08-25T06:13:09;101382.16;;;27.34
65738;BMP280;52478;51.844;6.582;2022-08-25T06:15:35;101382.16;;;27.34
65738;BMP280;52478;51.844;6.582;2022-08-25T06:18:02;101383.28;;;27.24
65738;BMP280;52478;51.844;6.582;2022-08-25T06:20:30;101387.38;;;27.15
65738;BMP280;52478;51.844;6.582;2022-08-25T06:22:57;101386.44;;;27.20
65738;BMP280;52478;51.844;6.582;2022-08-25T06:25:25;101392.06;;;27.20
65738;BMP280;52478;51.844;6.582;2022-08-25T06:27:53;101388.84;;;27.16
65738;BMP280;52478;51.844;6.582;2022-08-25T06:30:21;101400.91;;;27.24
65738;BMP280;52478;51.844;6.582;2022-08-25T06:32:48;101394.69;;;27.18
65738;BMP280;52478;51.844;6.582;2022-08-25T06:35:17;101401.97;;;27.14
65738;BMP280;52478;51.844;6.582;2022-08-25T06:37:45;101393.09;;;27.10
65738;BMP280;52478;51.844;6.582;2022-08-25T06:40:13;101409.28;;;27.17
65738;BMP280;52478;51.844;6.582;2022-08-25T06:42:40;101400.31;;;27.18
65738;BMP280;52478;51.844;6.582;2022-08-25T06:45:08;101404.25;;;27.23
65738;BMP280;52478;51.844;6.582;2022-08-25T06:47:36;101400.91;;;27.24
65738;BMP280;52478;51.844;6.582;2022-08-25T06:50:02;101395.28;;;27.24
65738;BMP280;52478;51.844;6.582;2022-08-25T06:52:29;101402.78;;;27.29
65738;BMP280;52478;51.844;6.582;2022-08-25T06:54:56;101391.75;;;27.31
65738;BMP280;52478;51.844;6.582;2022-08-25T06:57:22;101399.03;;;27.34
65738;BMP280;52478;51.844;6.582;2022-08-25T06:59:49;101396.22;;;27.34
65738;BMP280;52478;51.844;6.582;2022-08-25T07:02:17;101404.66;;;27.34
65738;BMP280;52478;51.844;6.582;2022-08-25T07:04:44;101402.78;;;27.29
65738;BMP280;52478;51.844;6.582;2022-08-25T07:07:11;101400.34;;;27.26
65738;BMP280;52478;51.844;6.582;2022-08-25T07:09:37;101395.28;;;27.24
65738;BMP280;52478;51.844;6.582;2022-08-25T07:12:05;101399.78;;;27.27
65738;BMP280;52478;51.844;6.582;2022-08-25T07:14:32;101405.06;;;27.31
65738;BMP280;52478;51.844;6.582;2022-08-25T07:16:59;101403.72;;;27.32
65738;BMP280;52478;51.844;6.582;2022-08-25T07:19:27;101407.72;;;27.36
65738;BMP280;52478;51.844;6.582;2022-08-25T07:21:54;101406.94;;;27.36
65738;BMP280;52478;51.844;6.582;2022-08-25T07:24:21;101414.81;;;27.37
65738;BMP280;52478;51.844;6.582;2022-08-25T07:26:47;101408.81;;;27.41
65738;BMP280;52478;51.844;6.582;2022-08-25T07:29:16;101405.28;;;27.40
65738;BMP280;52478;51.844;6.582;2022-08-25T07:31:43;101398.75;;;27.45
65738;BMP280;52478;51.844;6.582;2022-08-25T07:34:10;101406.25;;;27.50
65738;BMP280;52478;51.844;6.582;2022-08-25T07:36:56;101403.28;;;27.56
65738;BMP280;52478;51.844;6.582;2022-08-25T07:39:25;101398.78;;;27.60
65738;BMP280;52478;51.844;6.582;2022-08-25T07:41:52;101395.41;;;27.62
65738;BMP280;52478;51.844;6.582;2022-08-25T07:44:19;101393.94;;;27.68
65738;BMP280;52478;51.844;6.582;2022-08-25T07:46:46;101397.69;;;27.71
65738;BMP280;52478;51.844;6.582;2022-08-25T07:49:13;101392.44;;;27.74
65738;BMP280;52478;51.844;6.582;2022-08-25T07:51:39;101386.28;;;27.76
65738;BMP280;52478;51.844;6.582;2022-08-25T07:54:07;101384.94;;;27.77
65738;BMP280;52478;51.844;6.582;2022-08-25T07:56:34;101379.88;;;27.83
65738;BMP280;52478;51.844;6.582;2022-08-25T07:59:00;101382.72;;;27.90
65738;BMP280;52478;51.844;6.582;2022-08-25T08:01:27;101386.88;;;27.97
65738;BMP280;52478;51.844;6.582;2022-08-25T08:03:53;101383.88;;;28.02
65738;BMP280;52478;51.844;6.582;2022-08-25T08:06:22;101388.19;;;28.11
65738;BMP280;52478;51.844;6.582;2022-08-25T08:08:51;101386.13;;;28.19
65738;BMP280;52478;51.844;6.582;2022-08-25T08:11:21;101383.69;;;28.23
65738;BMP280;52478;51.844;6.582;2022-08-25T08:13:48;101377.09;;;28.28
65738;BMP280;52478;51.844;6.582;2022-08-25T08:16:17;101377.09;;;28.28
65738;BMP280;52478;51.844;6.582;2022-08-25T08:18:44;101386.13;;;28.34
65738;BMP280;52478;51.844;6.582;2022-08-25T08:21:12;101386.88;;;28.34
65738;BMP280;52478;51.844;6.582;2022-08-25T08:23:39;101384.44;;;28.38
65738;BMP280;52478;51.844;6.582;2022-08-25T08:26:06;101391.00;;;28.41
65738;BMP280;52478;51.844;6.582;2022-08-25T08:28:33;101374.66;;;28.47
65738;BMP280;52478;51.844;6.582;2022-08-25T08:31:00;101370.88;;;28.52
65738;BMP280;52478;51.844;6.582;2022-08-25T08:33:27;101369.38;;;28.51
65738;BMP280;52478;51.844;6.582;2022-08-25T08:35:55;101374.09;;;28.55
65738;BMP280;52478;51.844;6.582;2022-08-25T08:38:22;101363.19;;;28.59
65738;BMP280;52478;51.844;6.582;2022-08-25T08:40:57;101360.53;;;28.61
65738;BMP280;52478;51.844;6.582;2022-08-25T08:43:45;101354.13;;;28.68
65738;BMP280;52478;51.844;6.582;2022-08-25T08:46:13;101354.13;;;28.68
65738;BMP280;52478;51.844;6.582;2022-08-25T08:48:46;101350.00;;;28.69
65738;BMP280;52478;51.844;6.582;2022-08-25T08:51:18;101356.00;;;28.73
65738;BMP280;52478;51.844;6.582;2022-08-25T08:53:51;101358.66;;;28.71
65738;BMP280;52478;51.844;6.582;2022-08-25T08:56:22;101363.13;;;28.82
65738;BMP280;52478;51.844;6.582;2022-08-25T08:58:55;101352.78;;;28.84
65738;BMP280;52478;51.844;6.582;2022-08-25T09:01:24;101342.44;;;28.87
65738;BMP280;52478;51.844;6.582;2022-08-25T09:03:57;101339.78;;;28.89
65738;BMP280;52478;51.844;6.582;2022-08-25T09:06:29;101345.22;;;28.94
65738;BMP280;52478;51.844;6.582;2022-08-25T09:08:59;101345.41;;;28.96
65738;BMP280;52478;51.844;6.582;2022-08-25T09:11:35;101334.16;;;28.96
65738;BMP280;52478;51.844;6.582;2022-08-25T09:14:24;101338.28;;;28.95
65738;BMP280;52478;51.844;6.582;2022-08-25T09:16:55;101327.34;;;28.99
65738;BMP280;52478;51.844;6.582;2022-08-25T09:20:00;101322.88;;;28.96
65738;BMP280;52478;51.844;6.582;2022-08-25T09:22:38;101320.03;;;28.96
65738;BMP280;52478;51.844;6.582;2022-08-25T09:25:14;101323.59;;;28.97
65738;BMP280;52478;51.844;6.582;2022-08-25T09:27:46;101316.66;;;28.98
65738;BMP280;52478;51.844;6.582;2022-08-25T09:30:18;101307.44;;;28.97
65738;BMP280;52478;51.844;6.582;2022-08-25T09:32:47;101313.25;;;28.99
65738;BMP280;52478;51.844;6.582;2022-08-25T09:35:18;101305.75;;;29.02
65738;BMP280;52478;51.844;6.582;2022-08-25T09:37:55;101304.41;;;29.03
65738;BMP280;52478;51.844;6.582;2022-08-25T09:40:22;101305.91;;;29.04
65738;BMP280;52478;51.844;6.582;2022-08-25T09:42:50;101301.75;;;29.05
65738;BMP280;52478;51.844;6.582;2022-08-25T09:45:31;101303.28;;;29.06
65738;BMP280;52478;51.844;6.582;2022-08-25T09:47:59;101289.34;;;29.08
65738;BMP280;52478;51.844;6.582;2022-08-25T09:50:30;101285.19;;;29.09
65738;BMP280;52478;51.844;6.582;2022-08-25T09:53:10;101288.00;;;29.09
65738;BMP280;52478;51.844;6.582;2022-08-25T09:55:39;101281.81;;;29.10
65738;BMP280;52478;51.844;6.582;2022-08-25T09:58:14;101285.97;;;29.09
65738;BMP280;52478;51.844;6.582;2022-08-25T10:00:43;101283.28;;;29.11
65738;BMP280;52478;51.844;6.582;2022-08-25T10:03:12;101277.66;;;29.11
65738;BMP280;52478;51.844;6.582;2022-08-25T10:06:01;101285.56;;;29.13
65738;BMP280;52478;51.844;6.582;2022-08-25T10:08:32;101281.38;;;29.14
65738;BMP280;52478;51.844;6.582;2022-08-25T10:11:01;101276.53;;;29.14
65738;BMP280;52478;51.844;6.582;2022-08-25T10:13:35;101286.47;;;29.15
65738;BMP280;52478;51.844;6.582;2022-08-25T10:16:06;101286.66;;;29.17
65738;BMP280;52478;51.844;6.582;2022-08-25T10:18:33;101285.91;;;29.17
65738;BMP280;52478;51.844;6.582;2022-08-25T10:21:02;101278.94;;;29.18
65738;BMP280;52478;51.844;6.582;2022-08-25T10:23:31;101275.56;;;29.19
65738;BMP280;52478;51.844;6.582;2022-08-25T10:26:02;101267.84;;;29.20
65738;BMP280;52478;51.844;6.582;2022-08-25T10:28:36;101257.28;;;29.20
65738;BMP280;52478;51.844;6.582;2022-08-25T10:31:09;101263.69;;;29.21
65738;BMP280;52478;51.844;6.582;2022-08-25T10:33:49;101261.63;;;29.21
65738;BMP280;52478;51.844;6.582;2022-08-25T10:36:21;101257.47;;;29.22
65738;BMP280;52478;51.844;6.582;2022-08-25T10:38:52;101250.34;;;29.21
65738;BMP280;52478;51.844;6.582;2022-08-25T10:41:31;101249.19;;;29.24
65738;BMP280;52478;51.844;6.582;2022-08-25T10:44:09;101239.25;;;29.23
65738;BMP280;52478;51.844;6.582;2022-08-25T10:47:23;101242.22;;;29.25
65738;BMP280;52478;51.844;6.582;2022-08-25T10:49:54;101244.47;;;29.27
65738;BMP280;52478;51.844;6.582;2022-08-25T10:52:27;101229.06;;;29.28
65738;BMP280;52478;51.844;6.582;2022-08-25T10:54:57;101227.75;;;29.29
65738;BMP280;52478;51.844;6.582;2022-08-25T10:57:31;101229.97;;;29.30
65738;BMP280;52478;51.844;6.582;2022-08-25T11:00:04;101227.16;;;29.30
65738;BMP280;52478;51.844;6.582;2022-08-25T11:03:03;101223.59;;;29.30
65738;BMP280;52478;51.844;6.582;2022-08-25T11:05:39;101216.59;;;29.30
65738;BMP280;52478;51.844;6.582;2022-08-25T11:08:10;101216.06;;;29.32
65738;BMP280;52478;51.844;6.582;2022-08-25T11:10:42;101226.50;;;29.39
65738;BMP280;52478;51.844;6.582;2022-08-25T11:13:16;101220.16;;;29.38
65738;BMP280;52478;51.844;6.582;2022-08-25T11:15:44;101215.84;;;29.37
65738;BMP280;52478;51.844;6.582;2022-08-25T11:18:16;101212.38;;;29.39
65738;BMP280;52478;51.844;6.582;2022-08-25T11:20:45;101210.19;;;29.37
65738;BMP280;52478;51.844;6.582;2022-08-25T11:23:20;101206.75;;;29.39
65738;BMP280;52478;51.844;6.582;2022-08-25T11:25:51;101197.16;;;29.42
65738;BMP280;52478;51.844;6.582;2022-08-25T11:28:22;101203.16;;;29.46
65738;BMP280;52478;51.844;6.582;2022-08-25T11:30:55;101193.19;;;29.45
65738;BMP280;52478;51.844;6.582;2022-08-25T11:33:25;101193.38;;;29.47
65738;BMP280;52478;51.844;6.582;2022-08-25T11:35:56;101194.69;;;29.46
65738;BMP280;52478;51.844;6.582;2022-08-25T11:38:34;101199.00;;;29.47
65738;BMP280;52478;51.844;6.582;2022-08-25T11:41:12;101190.53;;;29.47
65738;BMP280;52478;51.844;6.582;2022-08-25T11:44:04;101192.00;;;29.48
65738;BMP280;52478;51.844;6.582;2022-08-25T11:46:44;101184.31;;;29.48
65738;BMP280;52478;51.844;6.582;2022-08-25T11:49:39;101185.22;;;29.51
65738;BMP280;52478;51.844;6.582;2022-08-25T11:52:37;101192.53;;;29.54
65738;BMP280;52478;51.844;6.582;2022-08-25T11:55:10;101188.97;;;29.53
65738;BMP280;52478;51.844;6.582;2022-08-25T11:57:37;101185.59;;;29.55
65738;BMP280;52478;51.844;6.582;2022-08-25T12:00:08;101189.13;;;29.55
65738;BMP280;52478;51.844;6.582;2022-08-25T12:02:39;101181.44;;;29.56
65738;BMP280;52478;51.844;6.582;2022-08-25T12:05:10;101177.28;;;29.57
65738;BMP280;52478;51.844;6.582;2022-08-25T12:07:57;101175.97;;;29.58
65738;BMP280;52478;51.844;6.582;2022-08-25T12:10:59;101159.44;;;29.54
65738;BMP280;52478;51.844;6.582;2022-08-25T12:13:42;101164.06;;;29.59
65738;BMP280;52478;51.844;6.582;2022-08-25T12:16:36;101159.94;;;29.60
65738;BMP280;52478;51.844;6.582;2022-08-25T12:19:29;101160.69;;;29.61
65738;BMP280;52478;51.844;6.582;2022-08-25T12:25:08;101155.97;;;29.63
65738;BMP280;52478;51.844;6.582;2022-08-25T12:27:42;101155.38;;;29.65
65738;BMP280;52478;51.844;6.582;2022-08-25T12:30:16;101158.19;;;29.65
65738;BMP280;52478;51.844;6.582;2022-08-25T12:32:58;101152.53;;;29.65
65738;BMP280;52478;51.844;6.582;2022-08-25T12:35:29;101133.56;;;29.65
65738;BMP280;52478;51.844;6.582;2022-08-25T12:37:59;101144.84;;;29.65
65738;BMP280;52478;51.844;6.582;2022-08-25T12:40:31;101141.47;;;29.67
65738;BMP280;52478;51.844;6.582;2022-08-25T12:43:05;101135.97;;;29.69
65738;BMP280;52478;51.844;6.582;2022-08-25T12:45:38;101129.56;;;29.68
65738;BMP280;52478;51.844;6.582;2022-08-25T12:48:52;101133.13;;;29.69
65738;BMP280;52478;51.844;6.582;2022-08-25T12:51:20;101124.81;;;29.71
65738;BMP280;52478;51.844;6.582;2022-08-25T12:53:50;101134.06;;;29.71
65738;BMP280;52478;51.844;6.582;2022-08-25T12:56:34;101128.41;;;29.71
65738;BMP280;52478;51.844;6.582;2022-08-25T12:59:11;101125.03;;;29.73
65738;BMP280;52478;51.844;6.582;2022-08-25T13:01:56;101122.91;;;29.73
65738;BMP280;52478;51.844;6.582;2022-08-25T13:04:37;101122.34;;;29.75
65738;BMP280;52478;51.844;6.582;2022-08-25T13:07:25;101126.63;;;29.76
65738;BMP280;52478;51.844;6.582;2022-08-25T13:12:56;101123.25;;;29.77
65738;BMP280;52478;51.844;6.582;2022-08-25T13:15:31;101118.38;;;29.78
65738;BMP280;52478;51.844;6.582;2022-08-25T13:18:16;101120.59;;;29.79
65738;BMP280;52478;51.844;6.582;2022-08-25T13:20:43;101118.53;;;29.80
65738;BMP280;52478;51.844;6.582;2022-08-25T13:23:11;101102.34;;;29.80
65738;BMP280;52478;51.844;6.582;2022-08-25T13:25:46;101106.63;;;29.81
65738;BMP280;52478;51.844;6.582;2022-08-25T13:28:22;101102.50;;;29.82
65738;BMP280;52478;51.844;6.582;2022-08-25T13:30:55;101101.75;;;29.82
65738;BMP280;52478;51.844;6.582;2022-08-25T13:33:22;101091.97;;;29.83
65738;BMP280;52478;51.844;6.582;2022-08-25T13:35:51;101090.63;;;29.84
65738;BMP280;52478;51.844;6.582;2022-08-25T13:38:39;101078.75;;;29.85
65738;BMP280;52478;51.844;6.582;2022-08-25T13:41:06;101086.66;;;29.87
65738;BMP280;52478;51.844;6.582;2022-08-25T13:43:35;101082.47;;;29.88
65738;BMP280;52478;51.844;6.582;2022-08-25T13:46:03;101078.00;;;29.85
65738;BMP280;52478;51.844;6.582;2022-08-25T13:48:32;101082.47;;;29.88
65738;BMP280;52478;51.844;6.582;2022-08-25T13:51:06;101076.84;;;29.88
65738;BMP280;52478;51.844;6.582;2022-08-25T13:53:34;101070.63;;;29.89
65738;BMP280;52478;51.844;6.582;2022-08-25T13:56:01;101069.28;;;29.90
65738;BMP280;52478;51.844;6.582;2022-08-25T13:58:29;101067.94;;;29.91
65738;BMP280;52478;51.844;6.582;2022-08-25T14:01:06;101063.63;;;29.90
65738;BMP280;52478;51.844;6.582;2022-08-25T14:03:36;101069.63;;;29.94
65738;BMP280;52478;51.844;6.582;2022-08-25T14:06:04;101065.44;;;29.95
65738;BMP280;52478;51.844;6.582;2022-08-25T14:08:33;101069.03;;;29.96
65738;BMP280;52478;51.844;6.582;2022-08-25T14:11:05;101069.19;;;29.98
65738;BMP280;52478;51.844;6.582;2022-08-25T14:13:32;101065.03;;;29.99
65738;BMP280;52478;51.844;6.582;2022-08-25T14:16:08;101072.19;;;30.00
65738;BMP280;52478;51.844;6.582;2022-08-25T14:18:38;101066.53;;;30.00
65738;BMP280;52478;51.844;6.582;2022-08-25T14:21:12;101067.28;;;30.00